METAR UND TAF INFORMATION
ZLGM 110600Z 33003MPS 260V010 9999 FEW046 BKN090 21/M02 Q1023 NOSIG

 FLUGHAFENKARTE

 RUNWAY INFORMATION
Runway 09 Runway length 0 ft Runway width 0 ft
Runway elevation 0 ft Runway displaced threshold 0 ft Runway heading 0
Runway 27 Runway length 0 ft Runway width 0 ft
Runway elevation 0 ft Runway displaced threshold 0 ft Runway heading 0

 AIRPORT FREQUENCIES

 AIRPORT NEAR NAVIGATION AIDS